Time;durP1;ratioP1;P1;durP2;ratioP2;P2;SDS_P1;SDS_P2;PMS_P1;PMS_P2;Temp;Humidity;BMP_temperature;BMP_pressure;BME280_temperature;BME280_humidity;BME280_pressure;Samples;Min_cycle;Max_cycle;Signal;HPM_P1;HPM_P2
2023/09/30 00:00:09;;;;;;;0.00;0.00;;;;;;;;;;4982550;28;20082;-79
2023/09/30 00:02:39;;;;;;;0.00;0.00;;;;;;;;;;4980553;28;20043;-77
2023/09/30 00:05:08;;;;;;;2.15;2.05;;;;;;;;;;4988700;28;20062;-77
2023/09/30 00:07:36;;;;;;;0.00;0.00;;;;;;;;;;4986451;28;20112;-77
2023/09/30 00:10:03;;;;;;;0.00;0.00;;;;;;;;;;4986699;28;20100;-77
2023/09/30 00:12:30;;;;;;;0.00;0.00;;;;;;;;;;4985792;28;20559;-79
2023/09/30 00:14:58;;;;;;;0.90;0.90;;;;;;;;;;4985743;28;20692;-77
2023/09/30 00:17:26;;;;;;;0.73;0.73;;;;;;;;;;4983880;28;20050;-78
2023/09/30 00:19:53;;;;;;;0.08;0.08;;;;;;;;;;4989651;28;20382;-80
2023/09/30 00:22:21;;;;;;;0.00;0.00;;;;;;;;;;4972853;28;20578;-80
2023/09/30 00:24:49;;;;;;;0.00;0.00;;;;;;;;;;4987664;28;20104;-77
2023/09/30 00:27:17;;;;;;;0.00;0.00;;;;;;;;;;4990825;28;20042;-77
2023/09/30 00:29:45;;;;;;;0.00;0.00;;;;;;;;;;4993143;28;20054;-78
2023/09/30 00:32:12;;;;;;;0.00;0.00;;;;;;;;;;4992576;28;20097;-79
2023/09/30 00:34:40;;;;;;;0.25;0.13;;;;;;;;;;4993369;28;20543;-79
2023/09/30 00:37:09;;;;;;;0.47;0.47;;;;;;;;;;4992892;28;20416;-80
2023/09/30 00:39:37;;;;;;;0.00;0.00;;;;;;;;;;5000408;28;20074;-80
2023/09/30 00:42:04;;;;;;;0.00;0.00;;;;;;;;;;4999977;28;20531;-80
2023/09/30 00:44:33;;;;;;;0.00;0.00;;;;;;;;;;4992198;28;20056;-79
2023/09/30 00:47:00;;;;;;;0.00;0.00;;;;;;;;;;4991678;28;20081;-79
2023/09/30 00:49:29;;;;;;;28.67;26.27;;;;;;;;;;4993396;28;20512;-79
2023/09/30 00:51:57;;;;;;;0.68;0.68;;;;;;;;;;4989859;28;20055;-79
2023/09/30 00:54:25;;;;;;;0.00;0.00;;;;;;;;;;4992791;28;20130;-79
2023/09/30 00:56:55;;;;;;;0.00;0.00;;;;;;;;;;4989511;28;20282;-79
2023/09/30 00:59:25;;;;;;;0.00;0.00;;;;;;;;;;4992330;28;20038;-79
2023/09/30 01:01:52;;;;;;;0.00;0.00;;;;;;;;;;4993352;28;20184;-79
2023/09/30 01:04:21;;;;;;;0.00;0.00;;;;;;;;;;4988606;28;20043;-79
2023/09/30 01:06:49;;;;;;;0.00;0.00;;;;;;;;;;4991179;28;20042;-79
2023/09/30 01:09:16;;;;;;;0.00;0.00;;;;;;;;;;4988634;28;20046;-79
2023/09/30 01:11:44;;;;;;;0.00;0.00;;;;;;;;;;4989130;28;20121;-79
2023/09/30 01:14:44;;;;;;;0.00;0.00;;;;;;;;;;4990656;28;20042;-79
2023/09/30 01:17:13;;;;;;;0.00;0.00;;;;;;;;;;4958670;28;20412;-79
2023/09/30 01:19:44;;;;;;;0.00;0.00;;;;;;;;;;4988367;28;20077;-79
2023/09/30 01:22:12;;;;;;;;;;;;;;;;;;4990637;28;20105;-79
2023/09/30 01:24:40;;;;;;;0.00;0.00;;;;;;;;;;4985166;28;20402;-79
2023/09/30 01:27:09;;;;;;;0.00;0.00;;;;;;;;;;4988441;28;20424;-79
2023/09/30 01:29:38;;;;;;;0.00;0.00;;;;;;;;;;4988875;28;20061;-79
2023/09/30 01:32:09;;;;;;;0.00;0.00;;;;;;;;;;4989375;28;20064;-79
2023/09/30 01:34:37;;;;;;;0.52;0.52;;;;;;;;;;4991133;28;20161;-79
2023/09/30 01:37:04;;;;;;;0.00;0.00;;;;;;;;;;4989668;28;20480;-79
2023/09/30 01:39:33;;;;;;;0.00;0.00;;;;;;;;;;4984612;28;20624;-79
2023/09/30 01:42:01;;;;;;;3.42;2.05;;;;;;;;;;4984332;28;20056;-79
2023/09/30 01:44:28;;;;;;;0.00;0.00;;;;;;;;;;4986078;28;20120;-79
2023/09/30 01:46:56;;;;;;;0.00;0.00;;;;;;;;;;4985204;28;20295;-79
2023/09/30 01:49:25;;;;;;;0.00;0.00;;;;;;;;;;4985779;28;20042;-79
2023/09/30 01:51:55;;;;;;;0.00;0.00;;;;;;;;;;4987119;28;20050;-79
2023/09/30 01:54:22;;;;;;;0.00;0.00;;;;;;;;;;4987176;28;20046;-79
2023/09/30 01:56:50;;;;;;;0.00;0.00;;;;;;;;;;4986019;28;20461;-79
2023/09/30 01:59:17;;;;;;;0.00;0.00;;;;;;;;;;4986068;28;20064;-79
2023/09/30 02:01:48;;;;;;;0.00;0.00;;;;;;;;;;4986309;28;20079;-79
2023/09/30 02:04:17;;;;;;;1.15;1.15;;;;;;;;;;4986031;28;20050;-78
2023/09/30 02:06:44;;;;;;;0.00;0.00;;;;;;;;;;4988495;28;20061;-78
2023/09/30 02:09:12;;;;;;;0.10;0.10;;;;;;;;;;4987620;28;20125;-78
2023/09/30 02:11:41;;;;;;;0.00;0.00;;;;;;;;;;4987099;28;20069;-78
2023/09/30 02:14:11;;;;;;;0.00;0.00;;;;;;;;;;4987062;28;20079;-78
2023/09/30 02:16:40;;;;;;;0.00;0.00;;;;;;;;;;4986092;28;20062;-78
2023/09/30 02:19:10;;;;;;;0.00;0.00;;;;;;;;;;4988353;28;20145;-78
2023/09/30 02:21:38;;;;;;;0.00;0.00;;;;;;;;;;4986637;28;20054;-78
2023/09/30 02:24:07;;;;;;;0.05;0.05;;;;;;;;;;4988299;28;20073;-78
2023/09/30 02:26:35;;;;;;;0.00;0.00;;;;;;;;;;4988543;28;20141;-78
2023/09/30 02:29:02;;;;;;;0.05;0.05;;;;;;;;;;4990187;28;20050;-78
2023/09/30 02:31:30;;;;;;;0.00;0.00;;;;;;;;;;4987368;28;20061;-78
2023/09/30 02:33:57;;;;;;;0.00;0.00;;;;;;;;;;4982929;28;20042;-78
2023/09/30 02:36:27;;;;;;;0.00;0.00;;;;;;;;;;4990099;28;20050;-78
2023/09/30 02:38:54;;;;;;;0.10;0.10;;;;;;;;;;4991380;28;20496;-78
2023/09/30 02:41:22;;;;;;;1.15;0.65;;;;;;;;;;5022730;23;20423;-75
2023/09/30 02:43:49;;;;;;;0.10;0.10;;;;;;;;;;4991317;28;20054;-75
2023/09/30 02:46:17;;;;;;;0.80;0.75;;;;;;;;;;4999756;28;20042;-75
2023/09/30 02:48:45;;;;;;;1.65;1.55;;;;;;;;;;4990094;28;20155;-75
2023/09/30 02:51:13;;;;;;;0.00;0.00;;;;;;;;;;4993950;28;20057;-75
2023/09/30 02:53:40;;;;;;;0.30;0.30;;;;;;;;;;4997258;28;20069;-75
2023/09/30 02:56:09;;;;;;;0.00;0.00;;;;;;;;;;4992558;28;20412;-76
2023/09/30 02:58:39;;;;;;;0.00;0.00;;;;;;;;;;5001355;28;20065;-75
2023/09/30 03:01:09;;;;;;;0.20;0.20;;;;;;;;;;4994036;28;20054;-75
2023/09/30 03:03:39;;;;;;;0.38;0.38;;;;;;;;;;5002063;28;20468;-75
2023/09/30 03:06:07;;;;;;;0.00;0.00;;;;;;;;;;4992813;28;20065;-75
2023/09/30 03:08:35;;;;;;;0.00;0.00;;;;;;;;;;4992656;28;20062;-75
2023/09/30 03:11:03;;;;;;;1.02;1.02;;;;;;;;;;4998172;28;20054;-75
2023/09/30 03:13:31;;;;;;;0.00;0.00;;;;;;;;;;4997561;28;20053;-75
2023/09/30 03:15:59;;;;;;;0.65;0.65;;;;;;;;;;4995879;28;20050;-75
2023/09/30 03:18:28;;;;;;;1.73;1.65;;;;;;;;;;4994003;28;20061;-75
2023/09/30 03:21:08;;;;;;;0.38;0.38;;;;;;;;;;4999567;28;20591;-75
2023/09/30 03:23:35;;;;;;;1.20;1.10;;;;;;;;;;4996677;28;20508;-75
2023/09/30 03:26:03;;;;;;;0.57;0.57;;;;;;;;;;4996476;28;20053;-75
2023/09/30 03:28:30;;;;;;;0.20;0.20;;;;;;;;;;4996802;28;20078;-76
2023/09/30 03:30:58;;;;;;;1.25;1.10;;;;;;;;;;4998782;28;20084;-75
2023/09/30 03:33:26;;;;;;;1.67;1.58;;;;;;;;;;4993951;28;20123;-75
2023/09/30 03:35:54;;;;;;;0.40;0.40;;;;;;;;;;4995459;28;20389;-75
2023/09/30 03:38:22;;;;;;;0.00;0.00;;;;;;;;;;4991155;28;20424;-75
2023/09/30 03:40:50;;;;;;;2.00;0.85;;;;;;;;;;5000698;28;20339;-76
2023/09/30 03:43:17;;;;;;;0.15;0.15;;;;;;;;;;4994074;28;20108;-75
2023/09/30 03:45:45;;;;;;;28.35;26.40;;;;;;;;;;4996580;28;20070;-76
2023/09/30 03:48:12;;;;;;;2.78;2.67;;;;;;;;;;4993790;28;20050;-75
2023/09/30 03:50:40;;;;;;;0.00;0.00;;;;;;;;;;4999002;28;20156;-74
2023/09/30 03:53:07;;;;;;;0.38;0.38;;;;;;;;;;4992181;28;20058;-75
2023/09/30 03:55:36;;;;;;;0.10;0.10;;;;;;;;;;4998158;28;20621;-75
2023/09/30 03:58:04;;;;;;;0.00;0.00;;;;;;;;;;4994445;28;20124;-75
2023/09/30 04:00:31;;;;;;;0.10;0.10;;;;;;;;;;4994672;28;20058;-75
2023/09/30 04:02:59;;;;;;;0.00;0.00;;;;;;;;;;5001261;28;20038;-75
2023/09/30 04:05:29;;;;;;;2.63;1.25;;;;;;;;;;4997741;28;20042;-74
2023/09/30 04:07:57;;;;;;;0.22;0.22;;;;;;;;;;4993300;28;20060;-75
2023/09/30 04:10:25;;;;;;;0.63;0.63;;;;;;;;;;4987004;28;20420;-75
2023/09/30 04:12:52;;;;;;;0.00;0.00;;;;;;;;;;4997541;28;20516;-75
2023/09/30 04:15:20;;;;;;;0.20;0.20;;;;;;;;;;4995549;28;20054;-75
2023/09/30 04:17:53;;;;;;;0.10;0.10;;;;;;;;;;4997013;28;20081;-75
2023/09/30 04:20:23;;;;;;;1.65;1.60;;;;;;;;;;4996567;28;20066;-75
2023/09/30 04:22:52;;;;;;;0.00;0.00;;;;;;;;;;4993842;28;20121;-75
2023/09/30 04:25:20;;;;;;;19.65;18.10;;;;;;;;;;4987455;28;20054;-75
2023/09/30 04:27:48;;;;;;;0.88;0.20;;;;;;;;;;5000307;28;20045;-75
2023/09/30 04:30:22;;;;;;;0.17;0.17;;;;;;;;;;4993290;28;20116;-75
2023/09/30 04:32:50;;;;;;;3.30;1.95;;;;;;;;;;4993537;28;20101;-74
2023/09/30 04:35:17;;;;;;;0.00;0.00;;;;;;;;;;4998764;28;20041;-75
2023/09/30 04:37:45;;;;;;;25.73;23.70;;;;;;;;;;4998501;28;20081;-75
2023/09/30 04:40:19;;;;;;;13.80;12.57;;;;;;;;;;4988696;28;20293;-75
2023/09/30 04:42:47;;;;;;;0.98;0.88;;;;;;;;;;5003249;28;20056;-75
2023/09/30 04:45:19;;;;;;;1.77;1.73;;;;;;;;;;4990450;28;20046;-75
2023/09/30 04:47:50;;;;;;;0.65;0.65;;;;;;;;;;4996725;28;20296;-75
2023/09/30 04:50:21;;;;;;;2.50;1.75;;;;;;;;;;5005214;28;20056;-75
2023/09/30 04:52:50;;;;;;;0.50;0.43;;;;;;;;;;4999456;28;20042;-75
2023/09/30 04:55:18;;;;;;;0.20;0.20;;;;;;;;;;5002002;28;20301;-75
2023/09/30 04:57:47;;;;;;;3.25;0.43;;;;;;;;;;4995318;28;20141;-75
2023/09/30 05:00:19;;;;;;;0.00;0.00;;;;;;;;;;4986294;28;20615;-75
2023/09/30 05:02:46;;;;;;;0.55;0.17;;;;;;;;;;4990077;28;20038;-75
2023/09/30 05:05:14;;;;;;;0.30;0.30;;;;;;;;;;4991922;28;20056;-75
2023/09/30 05:07:43;;;;;;;0.43;0.43;;;;;;;;;;4992077;28;20042;-75
2023/09/30 05:10:13;;;;;;;0.00;0.00;;;;;;;;;;4999081;28;20392;-75
2023/09/30 05:12:45;;;;;;;0.10;0.08;;;;;;;;;;4994451;28;20046;-75
2023/09/30 05:15:15;;;;;;;0.10;0.10;;;;;;;;;;4988451;28;20046;-75
2023/09/30 05:17:47;;;;;;;0.00;0.00;;;;;;;;;;4987639;28;20039;-75
2023/09/30 05:20:21;;;;;;;0.20;0.20;;;;;;;;;;4988725;28;20390;-75
2023/09/30 05:22:57;;;;;;;9.35;8.73;;;;;;;;;;4994802;28;20049;-76
2023/09/30 05:25:26;;;;;;;6.38;5.82;;;;;;;;;;4997657;28;20116;-76
2023/09/30 05:27:54;;;;;;;0.65;0.65;;;;;;;;;;4995810;28;20049;-76
2023/09/30 05:30:21;;;;;;;33.58;30.95;;;;;;;;;;4991330;28;20121;-74
2023/09/30 05:32:52;;;;;;;0.35;0.35;;;;;;;;;;4986601;28;20212;-74
2023/09/30 05:35:22;;;;;;;0.00;0.00;;;;;;;;;;4998284;28;20069;-74
2023/09/30 05:37:52;;;;;;;2.13;0.63;;;;;;;;;;4996007;28;20530;-74
2023/09/30 05:40:30;;;;;;;2.65;0.68;;;;;;;;;;4998164;28;20050;-74
2023/09/30 05:42:59;;;;;;;0.08;0.08;;;;;;;;;;4996257;28;20101;-73
2023/09/30 05:45:27;;;;;;;4.72;4.45;;;;;;;;;;5000902;28;20492;-74
2023/09/30 05:47:57;;;;;;;0.68;0.50;;;;;;;;;;4995090;28;20054;-75
2023/09/30 05:50:26;;;;;;;0.70;0.57;;;;;;;;;;4998373;28;20046;-74
2023/09/30 05:52:55;;;;;;;0.15;0.15;;;;;;;;;;4993656;28;20598;-75
2023/09/30 05:55:25;;;;;;;0.00;0.00;;;;;;;;;;4992611;28;20076;-75
2023/09/30 05:57:53;;;;;;;0.70;0.70;;;;;;;;;;5003441;28;20049;-75
2023/09/30 06:00:30;;;;;;;0.00;0.00;;;;;;;;;;4997615;28;20288;-75
2023/09/30 06:02:58;;;;;;;0.00;0.00;;;;;;;;;;4990611;28;20057;-75
2023/09/30 06:05:27;;;;;;;0.00;0.00;;;;;;;;;;4989938;28;20042;-74
2023/09/30 06:07:54;;;;;;;0.70;0.70;;;;;;;;;;4998081;28;20136;-76
2023/09/30 06:10:22;;;;;;;0.98;0.60;;;;;;;;;;4995539;28;20508;-75
2023/09/30 06:12:54;;;;;;;0.68;0.63;;;;;;;;;;4996609;28;20050;-76
2023/09/30 06:15:25;;;;;;;0.70;0.70;;;;;;;;;;4996219;28;20042;-76
2023/09/30 06:17:55;;;;;;;0.00;0.00;;;;;;;;;;4974120;28;20053;-75
2023/09/30 06:20:25;;;;;;;0.10;0.10;;;;;;;;;;4990539;28;20116;-75
2023/09/30 06:22:54;;;;;;;0.00;0.00;;;;;;;;;;4991175;28;20050;-75
2023/09/30 06:25:23;;;;;;;0.10;0.10;;;;;;;;;;4993412;28;20069;-75
2023/09/30 06:27:51;;;;;;;0.00;0.00;;;;;;;;;;4990501;28;20117;-75
2023/09/30 06:30:24;;;;;;;14.90;13.95;;;;;;;;;;4985596;28;20057;-75
2023/09/30 06:32:53;;;;;;;0.00;0.00;;;;;;;;;;4980675;28;20101;-75
2023/09/30 06:35:21;;;;;;;0.10;0.10;;;;;;;;;;4995404;28;20050;-75
2023/09/30 06:37:51;;;;;;;1.27;1.27;;;;;;;;;;4988416;28;20062;-75
2023/09/30 06:40:18;;;;;;;0.45;0.32;;;;;;;;;;4992134;28;20100;-75
2023/09/30 06:42:46;;;;;;;0.60;0.60;;;;;;;;;;4989328;28;20590;-75
2023/09/30 06:45:13;;;;;;;0.75;0.65;;;;;;;;;;4989529;28;20516;-75
2023/09/30 06:47:41;;;;;;;0.15;0.15;;;;;;;;;;5002417;28;20042;-75
2023/09/30 06:50:16;;;;;;;2.13;2.03;;;;;;;;;;4988428;28;20077;-75
2023/09/30 06:52:45;;;;;;;0.10;0.10;;;;;;;;;;4993369;28;20049;-75
2023/09/30 06:55:16;;;;;;;9.60;8.88;;;;;;;;;;4988586;28;20050;-75
2023/09/30 06:57:44;;;;;;;3.72;2.88;;;;;;;;;;4990822;28;20439;-75
2023/09/30 07:00:13;;;;;;;0.00;0.00;;;;;;;;;;4982607;28;20050;-76
2023/09/30 07:02:41;;;;;;;13.05;10.35;;;;;;;;;;4990921;28;20129;-75
2023/09/30 07:05:10;;;;;;;0.75;0.75;;;;;;;;;;4981493;28;20055;-74
2023/09/30 07:07:39;;;;;;;0.08;0.08;;;;;;;;;;4991288;28;20084;-75
2023/09/30 07:10:07;;;;;;;0.00;0.00;;;;;;;;;;5001345;28;20056;-74
2023/09/30 07:12:38;;;;;;;0.00;0.00;;;;;;;;;;4994829;28;20052;-74
2023/09/30 07:15:06;;;;;;;0.63;0.60;;;;;;;;;;4998957;28;20056;-74
2023/09/30 07:17:34;;;;;;;0.00;0.00;;;;;;;;;;5002954;28;20298;-74
2023/09/30 07:20:02;;;;;;;0.05;0.05;;;;;;;;;;4996236;28;20507;-74
2023/09/30 07:22:31;;;;;;;3.40;3.08;;;;;;;;;;4993767;28;20496;-74
2023/09/30 07:25:01;;;;;;;1.75;0.85;;;;;;;;;;4998324;28;20507;-74
2023/09/30 07:27:29;;;;;;;0.00;0.00;;;;;;;;;;4989205;28;20042;-74
2023/09/30 07:29:56;;;;;;;0.00;0.00;;;;;;;;;;4987949;28;20073;-74
2023/09/30 07:32:24;;;;;;;6.07;5.47;;;;;;;;;;4993198;28;20046;-73
2023/09/30 07:34:52;;;;;;;0.08;0.05;;;;;;;;;;4994745;28;20396;-74
2023/09/30 07:37:20;;;;;;;0.30;0.30;;;;;;;;;;4994269;28;20073;-74
2023/09/30 07:39:48;;;;;;;0.10;0.10;;;;;;;;;;4995756;28;20112;-74
2023/09/30 07:42:17;;;;;;;0.00;0.00;;;;;;;;;;4993189;28;20048;-74
2023/09/30 07:44:44;;;;;;;0.08;0.08;;;;;;;;;;4999950;28;20416;-74
2023/09/30 07:47:12;;;;;;;0.20;0.20;;;;;;;;;;4991138;28;20394;-75
2023/09/30 07:49:39;;;;;;;0.00;0.00;;;;;;;;;;4988187;28;20054;-74
2023/09/30 07:52:07;;;;;;;0.70;0.70;;;;;;;;;;4995480;28;20501;-75
2023/09/30 07:54:34;;;;;;;0.00;0.00;;;;;;;;;;4995339;28;20046;-75
2023/09/30 07:57:02;;;;;;;6.22;1.02;;;;;;;;;;4990083;28;20046;-74
2023/09/30 07:59:29;;;;;;;0.45;0.30;;;;;;;;;;4989130;28;20050;-74
2023/09/30 08:01:57;;;;;;;0.30;0.30;;;;;;;;;;4987560;28;20050;-75
2023/09/30 08:04:25;;;;;;;0.10;0.10;;;;;;;;;;4989801;28;20046;-75
2023/09/30 08:06:53;;;;;;;0.00;0.00;;;;;;;;;;4994809;28;20427;-74
2023/09/30 08:09:22;;;;;;;0.00;0.00;;;;;;;;;;4989109;28;20726;-74
2023/09/30 08:11:50;;;;;;;0.30;0.30;;;;;;;;;;4992369;28;20104;-75
2023/09/30 08:14:18;;;;;;;3.05;2.80;;;;;;;;;;4991336;28;20125;-74
2023/09/30 08:16:45;;;;;;;0.00;0.00;;;;;;;;;;4995774;28;20215;-75
2023/09/30 08:19:13;;;;;;;1.75;0.25;;;;;;;;;;4988059;28;20109;-75
2023/09/30 08:21:40;;;;;;;11.07;10.45;;;;;;;;;;4989353;28;20050;-75
2023/09/30 08:24:08;;;;;;;0.38;0.38;;;;;;;;;;4990429;28;20530;-75
2023/09/30 08:26:35;;;;;;;1.00;0.85;;;;;;;;;;4989673;28;20407;-75
2023/09/30 08:29:03;;;;;;;0.13;0.13;;;;;;;;;;4996223;28;20050;-74
2023/09/30 08:31:30;;;;;;;0.30;0.10;;;;;;;;;;4992769;28;20050;-75
2023/09/30 08:33:58;;;;;;;0.00;0.00;;;;;;;;;;4992564;28;20042;-75
2023/09/30 08:36:25;;;;;;;0.05;0.05;;;;;;;;;;4989499;28;20050;-74
2023/09/30 08:38:53;;;;;;;0.30;0.30;;;;;;;;;;4987654;28;20047;-76
2023/09/30 08:41:33;;;;;;;0.20;0.20;;;;;;;;;;5033686;23;20041;-74
2023/09/30 08:44:02;;;;;;;0.10;0.10;;;;;;;;;;5025735;28;20052;-74
2023/09/30 08:46:32;;;;;;;5.28;0.22;;;;;;;;;;5014156;28;20156;-75
2023/09/30 08:49:03;;;;;;;0.35;0.35;;;;;;;;;;5011800;28;20112;-75
2023/09/30 08:51:31;;;;;;;10.07;9.45;;;;;;;;;;5013946;28;20045;-74
2023/09/30 08:54:00;;;;;;;0.10;0.10;;;;;;;;;;5008962;28;20522;-76
2023/09/30 08:56:29;;;;;;;5.88;5.57;;;;;;;;;;5013816;28;20045;-75
2023/09/30 08:59:00;;;;;;;1.25;0.25;;;;;;;;;;5016614;28;20417;-74
2023/09/30 09:01:29;;;;;;;0.10;0.10;;;;;;;;;;5008452;28;20038;-74
2023/09/30 09:03:57;;;;;;;0.00;0.00;;;;;;;;;;5013657;28;20686;-74
2023/09/30 09:06:25;;;;;;;0.32;0.32;;;;;;;;;;5015208;28;20521;-75
2023/09/30 09:08:53;;;;;;;0.55;0.55;;;;;;;;;;5009659;28;20041;-74
2023/09/30 09:11:22;;;;;;;0.10;0.10;;;;;;;;;;5014008;28;20299;-75
2023/09/30 09:13:53;;;;;;;0.90;0.43;;;;;;;;;;5014613;28;20510;-75
2023/09/30 09:16:21;;;;;;;0.75;0.50;;;;;;;;;;5015229;28;20048;-75
2023/09/30 09:18:48;;;;;;;0.80;0.80;;;;;;;;;;5010911;28;20402;-75
2023/09/30 09:21:22;;;;;;;0.03;0.03;;;;;;;;;;5010509;28;20034;-76
2023/09/30 09:23:51;;;;;;;1.33;0.28;;;;;;;;;;5005568;28;20444;-76
2023/09/30 09:26:26;;;;;;;0.47;0.45;;;;;;;;;;5011171;28;20141;-75
2023/09/30 09:29:01;;;;;;;0.15;0.08;;;;;;;;;;5011744;28;20061;-76
2023/09/30 09:31:35;;;;;;;0.00;0.00;;;;;;;;;;5008260;28;20049;-74
2023/09/30 09:34:14;;;;;;;20.38;18.63;;;;;;;;;;5010771;28;20399;-67
2023/09/30 09:36:43;;;;;;;0.00;0.00;;;;;;;;;;5012884;28;20100;-74
2023/09/30 09:39:13;;;;;;;0.00;0.00;;;;;;;;;;5010820;28;20050;-73
2023/09/30 09:41:50;;;;;;;0.00;0.00;;;;;;;;;;5009958;28;20073;-75
2023/09/30 09:44:20;;;;;;;0.00;0.00;;;;;;;;;;5009334;28;20400;-74
2023/09/30 09:46:51;;;;;;;0.00;0.00;;;;;;;;;;5011252;28;20470;-75
2023/09/30 09:49:19;;;;;;;0.40;0.32;;;;;;;;;;5008727;28;20061;-75
2023/09/30 09:51:47;;;;;;;42.35;39.40;;;;;;;;;;5009620;28;20046;-75
2023/09/30 09:54:16;;;;;;;7.30;6.78;;;;;;;;;;5009634;28;20038;-75
2023/09/30 09:56:45;;;;;;;0.20;0.20;;;;;;;;;;5009051;28;20111;-75
2023/09/30 09:59:13;;;;;;;1.45;0.73;;;;;;;;;;5008128;28;20467;-75
2023/09/30 10:01:41;;;;;;;0.10;0.10;;;;;;;;;;5008985;28;20050;-74
2023/09/30 10:04:11;;;;;;;0.00;0.00;;;;;;;;;;5009383;28;20052;-76
2023/09/30 10:06:41;;;;;;;0.43;0.40;;;;;;;;;;5008581;28;20045;-74
2023/09/30 10:09:10;;;;;;;0.00;0.00;;;;;;;;;;5009038;28;20500;-76
2023/09/30 10:11:39;;;;;;;6.53;6.13;;;;;;;;;;5009462;28;20112;-74
2023/09/30 10:14:14;;;;;;;0.38;0.35;;;;;;;;;;5004965;28;20077;-76
2023/09/30 10:16:44;;;;;;;1.27;0.90;;;;;;;;;;5009832;28;20046;-74
2023/09/30 10:19:12;;;;;;;0.10;0.10;;;;;;;;;;5006653;28;20116;-74
2023/09/30 10:21:39;;;;;;;0.25;0.25;;;;;;;;;;5009309;28;20581;-74
2023/09/30 10:24:24;;;;;;;0.00;0.00;;;;;;;;;;5013715;28;20455;-74
2023/09/30 10:27:12;;;;;;;4.00;1.85;;;;;;;;;;5013983;28;20442;-73
2023/09/30 10:29:41;;;;;;;0.08;0.08;;;;;;;;;;5002997;28;20056;-74
2023/09/30 10:32:09;;;;;;;0.00;0.00;;;;;;;;;;5010387;28;20218;-74
2023/09/30 10:34:37;;;;;;;1.00;0.28;;;;;;;;;;5006512;28;20129;-71
2023/09/30 10:37:24;;;;;;;0.13;0.13;;;;;;;;;;5008607;28;20144;-74
2023/09/30 10:39:58;;;;;;;0.05;0.05;;;;;;;;;;5008625;28;20096;-74
2023/09/30 10:42:45;;;;;;;0.00;0.00;;;;;;;;;;5006458;28;20125;-74
2023/09/30 10:45:33;;;;;;;1.00;0.35;;;;;;;;;;5008209;28;20046;-73
2023/09/30 10:48:20;;;;;;;0.30;0.30;;;;;;;;;;5009453;28;20057;-74
2023/09/30 10:50:51;;;;;;;0.00;0.00;;;;;;;;;;5009065;28;20096;-74
2023/09/30 10:53:19;;;;;;;2.67;2.55;;;;;;;;;;5000540;28;20057;-74
2023/09/30 10:55:47;;;;;;;2.75;1.50;;;;;;;;;;5008485;28;20052;-74
2023/09/30 10:58:14;;;;;;;0.57;0.57;;;;;;;;;;5009314;28;20061;-74
2023/09/30 11:00:54;;;;;;;0.25;0.25;;;;;;;;;;5012411;28;20052;-74
2023/09/30 11:03:23;;;;;;;0.00;0.00;;;;;;;;;;5013707;28;20285;-74
2023/09/30 11:05:54;;;;;;;0.10;0.10;;;;;;;;;;5009815;28;20463;-74
2023/09/30 11:08:45;;;;;;;0.00;0.00;;;;;;;;;;5010229;28;20116;-74
2023/09/30 11:11:14;;;;;;;0.10;0.10;;;;;;;;;;5004293;28;20127;-74
2023/09/30 11:13:42;;;;;;;0.15;0.15;;;;;;;;;;5007628;28;20050;-74
2023/09/30 11:16:09;;;;;;;0.10;0.10;;;;;;;;;;5004543;28;20061;-74
2023/09/30 11:18:38;;;;;;;1.42;1.10;;;;;;;;;;5005821;28;20038;-73
2023/09/30 11:21:06;;;;;;;0.10;0.10;;;;;;;;;;5006519;28;20096;-74
2023/09/30 11:23:34;;;;;;;0.05;0.05;;;;;;;;;;5018606;28;20424;-75
2023/09/30 11:26:02;;;;;;;0.00;0.00;;;;;;;;;;5004282;28;20173;-75
2023/09/30 11:28:40;;;;;;;0.00;0.00;;;;;;;;;;5007361;28;20046;-75
2023/09/30 11:31:10;;;;;;;0.17;0.17;;;;;;;;;;5008578;28;20049;-75
2023/09/30 11:33:51;;;;;;;0.43;0.43;;;;;;;;;;5004798;28;20046;-75
2023/09/30 11:36:20;;;;;;;0.57;0.20;;;;;;;;;;5015280;28;20049;-74
2023/09/30 11:38:48;;;;;;;1.55;0.70;;;;;;;;;;5013121;28;20042;-74
2023/09/30 11:41:18;;;;;;;2.88;1.08;;;;;;;;;;5011819;28;20492;-75
2023/09/30 11:44:07;;;;;;;0.47;0.05;;;;;;;;;;5010676;28;20034;-74
2023/09/30 11:46:49;;;;;;;4.70;4.40;;;;;;;;;;5011147;28;20061;-71
2023/09/30 11:49:31;;;;;;;0.10;0.10;;;;;;;;;;5006826;28;20046;-73
2023/09/30 11:52:03;;;;;;;0.70;0.70;;;;;;;;;;5007613;28;20053;-72
2023/09/30 11:54:37;;;;;;;0.22;0.10;;;;;;;;;;5007527;28;20054;-74
2023/09/30 11:57:04;;;;;;;0.00;0.00;;;;;;;;;;5012571;28;20060;-74
2023/09/30 11:59:32;;;;;;;0.90;0.45;;;;;;;;;;5012394;28;20077;-74
2023/09/30 12:02:00;;;;;;;0.00;0.00;;;;;;;;;;5007612;28;20050;-75
2023/09/30 12:04:30;;;;;;;4.00;0.68;;;;;;;;;;5007781;28;20132;-74
2023/09/30 12:06:58;;;;;;;0.00;0.00;;;;;;;;;;5006902;28;20046;-74
2023/09/30 12:09:27;;;;;;;1.77;1.63;;;;;;;;;;5008183;28;20128;-74
2023/09/30 12:11:57;;;;;;;0.00;0.00;;;;;;;;;;5008915;28;20119;-74
2023/09/30 12:14:25;;;;;;;0.03;0.03;;;;;;;;;;5008831;28;20103;-73
2023/09/30 12:16:52;;;;;;;9.60;9.00;;;;;;;;;;5008076;28;20054;-72
2023/09/30 12:19:21;;;;;;;21.67;19.35;;;;;;;;;;5007244;28;20049;-71
2023/09/30 12:21:50;;;;;;;0.15;0.15;;;;;;;;;;5008333;28;20550;-71
2023/09/30 12:24:23;;;;;;;0.10;0.10;;;;;;;;;;5008074;28;20049;-72
2023/09/30 12:26:52;;;;;;;0.00;0.00;;;;;;;;;;5007684;28;20364;-73
2023/09/30 12:29:21;;;;;;;0.00;0.00;;;;;;;;;;5003808;28;20088;-73
2023/09/30 12:31:50;;;;;;;6.72;6.25;;;;;;;;;;5006536;28;20050;-74
2023/09/30 12:34:23;;;;;;;0.38;0.38;;;;;;;;;;5007356;28;20132;-74
2023/09/30 12:36:51;;;;;;;1.23;0.45;;;;;;;;;;5008128;28;20084;-72
2023/09/30 12:39:23;;;;;;;0.00;0.00;;;;;;;;;;5007922;28;20112;-73
2023/09/30 12:41:52;;;;;;;0.00;0.00;;;;;;;;;;5006776;28;20608;-74
2023/09/30 12:44:20;;;;;;;0.73;0.55;;;;;;;;;;5008130;28;20451;-75
2023/09/30 12:46:47;;;;;;;0.00;0.00;;;;;;;;;;5007908;28;20071;-74
2023/09/30 12:49:15;;;;;;;0.30;0.30;;;;;;;;;;5008056;28;20050;-74
2023/09/30 12:51:43;;;;;;;0.00;0.00;;;;;;;;;;5007200;28;20526;-74
2023/09/30 12:54:12;;;;;;;0.00;0.00;;;;;;;;;;5008362;28;20057;-74
2023/09/30 12:56:40;;;;;;;0.00;0.00;;;;;;;;;;5014627;28;20048;-74
2023/09/30 12:59:07;;;;;;;0.00;0.00;;;;;;;;;;5007656;28;20099;-74
2023/09/30 13:01:35;;;;;;;0.05;0.05;;;;;;;;;;5005954;28;20591;-74
2023/09/30 13:04:05;;;;;;;0.68;0.68;;;;;;;;;;5007615;28;20049;-73
2023/09/30 13:06:35;;;;;;;0.32;0.32;;;;;;;;;;5007801;28;20436;-74
2023/09/30 13:09:05;;;;;;;0.00;0.00;;;;;;;;;;5006594;28;20387;-75
2023/09/30 13:11:33;;;;;;;0.00;0.00;;;;;;;;;;5008032;28;20057;-74
2023/09/30 13:14:04;;;;;;;0.10;0.10;;;;;;;;;;5007609;28;20111;-75
2023/09/30 13:16:31;;;;;;;0.10;0.10;;;;;;;;;;5007619;28;20065;-75
2023/09/30 13:18:59;;;;;;;0.00;0.00;;;;;;;;;;5008017;28;20053;-74
2023/09/30 13:21:27;;;;;;;0.00;0.00;;;;;;;;;;5007936;28;20062;-73
2023/09/30 13:23:55;;;;;;;0.10;0.10;;;;;;;;;;5007803;28;20057;-71
2023/09/30 13:26:22;;;;;;;0.00;0.00;;;;;;;;;;5007464;28;20100;-74
2023/09/30 13:28:50;;;;;;;0.00;0.00;;;;;;;;;;5007535;28;20046;-74
2023/09/30 13:31:17;;;;;;;0.10;0.10;;;;;;;;;;5007703;28;20057;-75
2023/09/30 13:33:47;;;;;;;2.63;2.40;;;;;;;;;;5007242;28;20058;-74
2023/09/30 13:36:15;;;;;;;0.10;0.10;;;;;;;;;;5007152;28;20057;-74
2023/09/30 13:38:42;;;;;;;0.00;0.00;;;;;;;;;;5007824;28;20508;-73
2023/09/30 13:41:09;;;;;;;0.00;0.00;;;;;;;;;;5007226;28;20066;-74
2023/09/30 13:43:38;;;;;;;0.00;0.00;;;;;;;;;;5006793;28;20049;-72
2023/09/30 13:46:06;;;;;;;0.00;0.00;;;;;;;;;;5007124;28;20393;-73
2023/09/30 13:48:34;;;;;;;0.00;0.00;;;;;;;;;;5010372;28;20126;-74
2023/09/30 13:51:08;;;;;;;0.00;0.00;;;;;;;;;;5012455;28;20062;-74
2023/09/30 13:53:36;;;;;;;0.00;0.00;;;;;;;;;;5010343;28;20048;-73
2023/09/30 13:56:03;;;;;;;0.00;0.00;;;;;;;;;;5012320;28;20065;-74
2023/09/30 13:58:31;;;;;;;8.20;7.75;;;;;;;;;;5011355;28;20057;-73
2023/09/30 14:00:58;;;;;;;0.05;0.05;;;;;;;;;;5016159;28;20042;-74
2023/09/30 14:03:26;;;;;;;0.00;0.00;;;;;;;;;;5008834;28;20069;-74
2023/09/30 14:05:54;;;;;;;0.00;0.00;;;;;;;;;;5010903;28;20066;-73
2023/09/30 14:08:21;;;;;;;0.00;0.00;;;;;;;;;;5010671;28;20057;-74
2023/09/30 14:10:51;;;;;;;0.00;0.00;;;;;;;;;;5010769;28;20432;-74
2023/09/30 14:13:19;;;;;;;0.00;0.00;;;;;;;;;;5010231;28;20056;-74
2023/09/30 14:15:49;;;;;;;0.00;0.00;;;;;;;;;;5015276;28;20050;-74
2023/09/30 14:18:18;;;;;;;0.00;0.00;;;;;;;;;;5005722;28;20061;-74
2023/09/30 14:20:45;;;;;;;0.00;0.00;;;;;;;;;;5007787;28;20124;-75
2023/09/30 14:23:13;;;;;;;0.00;0.00;;;;;;;;;;5008424;28;20440;-74
2023/09/30 14:25:41;;;;;;;0.00;0.00;;;;;;;;;;5007878;28;20104;-74
2023/09/30 14:28:08;;;;;;;0.20;0.20;;;;;;;;;;5009492;28;20144;-74
2023/09/30 14:30:37;;;;;;;49.47;46.15;;;;;;;;;;5008014;28;20135;-71
2023/09/30 14:33:04;;;;;;;0.50;0.40;;;;;;;;;;5009014;28;20081;-71
2023/09/30 14:35:34;;;;;;;0.00;0.00;;;;;;;;;;5010447;28;20427;-74
2023/09/30 14:38:04;;;;;;;7.15;6.47;;;;;;;;;;5008003;28;20060;-71
2023/09/30 14:40:37;;;;;;;0.00;0.00;;;;;;;;;;5009305;28;20053;-74
2023/09/30 14:43:05;;;;;;;0.00;0.00;;;;;;;;;;5013106;28;20049;-73
2023/09/30 14:45:34;;;;;;;0.38;0.20;;;;;;;;;;5019063;28;20120;-73
2023/09/30 14:48:02;;;;;;;0.00;0.00;;;;;;;;;;5012055;28;20057;-74
2023/09/30 14:50:29;;;;;;;0.00;0.00;;;;;;;;;;5023029;28;20511;-74
2023/09/30 14:52:57;;;;;;;0.03;0.03;;;;;;;;;;5014154;28;20140;-73
2023/09/30 14:55:24;;;;;;;0.10;0.10;;;;;;;;;;5008740;28;20080;-73